createdAt,value
2023-05-19T00:01:57.416Z,100310.88
2023-05-19T00:04:25.112Z,100304.50
2023-05-19T00:06:54.446Z,100310.75
2023-05-19T00:09:22.912Z,100313.06
2023-05-19T00:11:50.841Z,100324.97
2023-05-19T00:14:18.744Z,100310.38
2023-05-19T00:16:46.496Z,100310.81
2023-05-19T00:19:14.830Z,100301.41
2023-05-19T00:21:41.990Z,100304.75
2023-05-19T00:24:10.043Z,100307.25
2023-05-19T00:26:37.046Z,100306.22
2023-05-19T00:29:22.848Z,100304.53
2023-05-19T00:31:50.470Z,100307.44
2023-05-19T00:34:19.664Z,100308.31
2023-05-19T00:36:46.782Z,100307.88
2023-05-19T00:39:14.484Z,100299.75
2023-05-19T00:41:42.007Z,100302.47
2023-05-19T00:44:09.019Z,100292.47
2023-05-19T00:46:36.144Z,100301.03
2023-05-19T00:49:03.022Z,100292.91
2023-05-19T00:51:44.227Z,100292.88
2023-05-19T00:54:11.900Z,100295.16
2023-05-19T00:56:39.572Z,100299.97
2023-05-19T00:59:07.310Z,100295.38
2023-05-19T01:01:34.358Z,100299.56
2023-05-19T01:04:01.686Z,100295.38
2023-05-19T01:06:29.371Z,100294.53
2023-05-19T01:08:57.589Z,100292.88
2023-05-19T01:11:24.472Z,100284.56
2023-05-19T01:13:51.697Z,100285.16
2023-05-19T01:16:29.532Z,100286.19
2023-05-19T01:19:10.568Z,100286.41
2023-05-19T01:22:09.095Z,100283.91
2023-05-19T01:25:07.861Z,100282.88
2023-05-19T01:28:15.963Z,100289.94
2023-05-19T01:30:52.485Z,100294.75
2023-05-19T01:33:23.405Z,100290.59
2023-05-19T01:35:53.712Z,100294.34
2023-05-19T01:38:22.389Z,100289.75
2023-05-19T01:40:51.403Z,100290.59
2023-05-19T01:43:23.950Z,100289.34
2023-05-19T01:45:53.325Z,100295.38
2023-05-19T01:48:23.129Z,100302.88
2023-05-19T01:50:50.455Z,100296.22
2023-05-19T01:53:17.440Z,100290.38
2023-05-19T01:55:52.197Z,100297.44
2023-05-19T01:58:33.197Z,100287.25
2023-05-19T02:01:16.478Z,100293.69
2023-05-19T02:04:06.886Z,100294.97
2023-05-19T02:06:45.975Z,100300.19
2023-05-19T02:09:20.749Z,100302.69
2023-05-19T02:11:55.884Z,100303.28
2023-05-19T02:14:33.606Z,100307.88
2023-05-19T02:17:05.171Z,100310.78
2023-05-19T02:19:34.268Z,100305.97
2023-05-19T02:22:01.251Z,100308.72
2023-05-19T02:24:28.150Z,100300.59
2023-05-19T02:29:50.829Z,100314.94
2023-05-19T02:32:20.393Z,100301.63
2023-05-19T02:34:47.974Z,100311.63
2023-05-19T02:37:16.588Z,100308.31
2023-05-19T02:39:44.580Z,100303.06
2023-05-19T02:42:12.526Z,100299.94
2023-05-19T02:44:39.670Z,100299.94
2023-05-19T02:47:06.690Z,100304.34
2023-05-19T02:49:35.058Z,100304.56
2023-05-19T02:52:02.265Z,100298.50
2023-05-19T02:54:29.346Z,100297.06
2023-05-19T02:56:56.463Z,100297.47
2023-05-19T02:59:25.472Z,100288.31
2023-05-19T03:01:56.445Z,100291.63
2023-05-19T03:04:23.764Z,100290.16
2023-05-19T03:06:52.657Z,100294.53
2023-05-19T03:13:02.904Z,100294.75
2023-05-19T03:15:57.793Z,100296.59
2023-05-19T03:18:26.386Z,100283.69
2023-05-19T03:20:54.539Z,100283.91
2023-05-19T03:23:22.882Z,100293.72
2023-05-19T03:25:49.907Z,100289.94
2023-05-19T03:28:16.820Z,100290.78
2023-05-19T03:30:43.821Z,100277.88
2023-05-19T03:33:18.704Z,100285.38
2023-05-19T03:35:45.979Z,100286.41
2023-05-19T03:38:13.615Z,100298.00
2023-05-19T03:40:48.606Z,100287.81
2023-05-19T03:43:15.573Z,100293.63
2023-05-19T03:45:48.061Z,100297.75
2023-05-19T03:48:33.428Z,100297.75
2023-05-19T03:51:20.806Z,100292.78
2023-05-19T03:53:50.617Z,100297.13
2023-05-19T03:56:20.487Z,100298.38
2023-05-19T03:58:47.633Z,100296.31
2023-05-19T04:01:16.067Z,100308.16
2023-05-19T04:03:43.029Z,100302.56
2023-05-19T04:06:10.095Z,100297.16
2023-05-19T04:08:37.002Z,100304.41
2023-05-19T04:11:04.262Z,100313.97
2023-05-19T04:13:33.712Z,100310.47
2023-05-19T04:16:00.889Z,100313.78
2023-05-19T04:18:29.242Z,100311.47
2023-05-19T04:20:56.452Z,100319.19
2023-05-19T04:23:23.460Z,100314.41
2023-05-19T04:25:51.308Z,100318.16
2023-05-19T04:28:18.295Z,100324.88
2023-05-19T04:30:46.850Z,100318.41
2023-05-19T04:33:14.731Z,100312.78
2023-05-19T04:35:42.979Z,100314.88
2023-05-19T04:38:11.677Z,100311.59
2023-05-19T04:40:39.014Z,100310.97
2023-05-19T04:43:06.629Z,100308.66
2023-05-19T04:45:33.779Z,100316.38
2023-05-19T04:48:04.514Z,100312.66
2023-05-19T04:50:31.701Z,100307.88
2023-05-19T04:52:59.431Z,100308.91
2023-05-19T04:55:28.723Z,100313.03
2023-05-19T04:57:57.481Z,100311.50
2023-05-19T05:00:24.885Z,100320.78
2023-05-19T05:03:05.942Z,100307.59
2023-05-19T05:05:35.369Z,100303.13
2023-05-19T05:08:02.703Z,100309.25
2023-05-19T05:10:34.429Z,100309.06
2023-05-19T05:13:02.674Z,100316.28
2023-05-19T05:15:31.065Z,100316.97
2023-05-19T05:18:02.100Z,100303.28
2023-05-19T05:20:34.179Z,100304.66
2023-05-19T05:23:02.450Z,100298.50
2023-05-19T05:25:32.398Z,100298.81
2023-05-19T05:27:59.587Z,100302.41
2023-05-19T05:30:26.623Z,100303.38
2023-05-19T05:32:54.149Z,100303.63
2023-05-19T05:35:33.984Z,100299.72
2023-05-19T05:38:01.257Z,100307.47
2023-05-19T05:40:29.838Z,100299.97
2023-05-19T05:42:57.158Z,100299.03
2023-05-19T05:45:26.045Z,100300.50
2023-05-19T05:47:54.940Z,100301.03
2023-05-19T05:50:23.915Z,100299.28
2023-05-19T05:52:56.912Z,100301.16
2023-05-19T05:55:25.943Z,100299.63
2023-05-19T05:57:52.902Z,100301.88
2023-05-19T06:00:21.499Z,100290.63
2023-05-19T06:02:52.573Z,100290.25
2023-05-19T06:05:20.561Z,100287.72
2023-05-19T06:07:48.740Z,100286.53
2023-05-19T06:10:23.746Z,100278.38
2023-05-19T06:12:52.984Z,100287.78
2023-05-19T06:15:23.441Z,100283.16
2023-05-19T06:18:07.567Z,100278.44
2023-05-19T06:20:34.681Z,100285.56
2023-05-19T06:23:03.300Z,100279.66
2023-05-19T06:25:31.786Z,100281.41
2023-05-19T06:27:58.887Z,100280.84
2023-05-19T06:30:25.936Z,100285.59
2023-05-19T06:33:12.046Z,100280.00
2023-05-19T06:35:39.030Z,100280.56
2023-05-19T06:38:06.456Z,100287.28
2023-05-19T06:40:35.995Z,100285.38
2023-05-19T06:43:03.687Z,100286.69
2023-05-19T06:45:53.493Z,100280.31
2023-05-19T06:48:22.501Z,100286.28
2023-05-19T06:50:49.882Z,100283.84
2023-05-19T06:53:19.944Z,100287.41
2023-05-19T06:55:58.139Z,100271.06
2023-05-19T06:58:27.830Z,100274.09
2023-05-19T07:00:55.434Z,100286.22
2023-05-19T07:03:24.762Z,100270.34
2023-05-19T07:05:55.512Z,100279.34
2023-05-19T07:08:22.725Z,100271.06
2023-05-19T07:10:51.108Z,100268.97
2023-05-19T07:13:17.970Z,100266.47
2023-05-19T07:15:45.966Z,100267.78
2023-05-19T07:18:13.791Z,100271.34
2023-05-19T07:20:41.686Z,100259.88
2023-05-19T07:23:09.451Z,100259.50
2023-05-19T07:25:36.937Z,100262.06
2023-05-19T07:28:06.263Z,100270.94
2023-05-19T07:30:33.953Z,100277.56
2023-05-19T07:33:00.995Z,100273.00
2023-05-19T07:35:28.939Z,100274.19
2023-05-19T07:37:55.948Z,100264.91
2023-05-19T07:40:22.942Z,100260.97
2023-05-19T07:42:50.208Z,100251.53
2023-05-19T07:45:18.845Z,100246.25
2023-05-19T07:47:45.897Z,100246.06
2023-05-19T07:50:12.839Z,100255.53
2023-05-19T07:52:40.083Z,100252.69
2023-05-19T07:55:07.226Z,100252.41
2023-05-19T07:57:34.169Z,100254.38
2023-05-19T08:00:01.083Z,100252.94
2023-05-19T08:02:29.470Z,100248.91
2023-05-19T08:04:56.537Z,100243.59
2023-05-19T08:07:23.630Z,100239.59
2023-05-19T08:09:50.549Z,100233.72
2023-05-19T08:12:17.409Z,100237.28
2023-05-19T08:14:44.763Z,100243.88
2023-05-19T08:17:11.721Z,100236.78
2023-05-19T08:19:40.004Z,100235.19
2023-05-19T08:22:08.076Z,100240.50
2023-05-19T08:24:36.877Z,100231.44
2023-05-19T08:27:04.639Z,100229.22
2023-05-19T08:29:32.138Z,100224.88
2023-05-19T08:31:59.044Z,100225.38
2023-05-19T08:34:27.219Z,100221.38
2023-05-19T08:36:56.217Z,100220.88
2023-05-19T08:39:23.113Z,100211.94
2023-05-19T08:41:52.600Z,100216.81
2023-05-19T08:44:20.068Z,100210.16
2023-05-19T08:46:48.136Z,100211.00
2023-05-19T08:49:25.488Z,100209.63
2023-05-19T08:52:06.247Z,100213.19
2023-05-19T08:54:43.269Z,100222.59
2023-05-19T08:57:10.935Z,100206.16
2023-05-19T08:59:40.850Z,100223.25
2023-05-19T09:02:13.191Z,100217.16
2023-05-19T09:04:41.212Z,100226.00
2023-05-19T09:07:09.668Z,100222.47
2023-05-19T09:09:36.715Z,100218.56
2023-05-19T09:12:04.564Z,100222.94
2023-05-19T09:14:32.994Z,100217.09
2023-05-19T09:17:02.060Z,100222.69
2023-05-19T09:19:29.518Z,100221.91
2023-05-19T09:22:00.288Z,100222.81
2023-05-19T09:24:29.036Z,100220.44
2023-05-19T09:26:57.732Z,100215.22
2023-05-19T09:29:26.173Z,100210.25
2023-05-19T09:31:55.434Z,100211.19
2023-05-19T09:34:22.567Z,100214.63
2023-05-19T09:36:49.748Z,100215.13
2023-05-19T09:39:17.745Z,100214.63
2023-05-19T09:41:46.591Z,100210.38
2023-05-19T09:44:21.182Z,100216.44
2023-05-19T09:46:49.748Z,100211.09
2023-05-19T09:49:21.412Z,100204.31
2023-05-19T09:51:53.970Z,100201.69
2023-05-19T09:54:22.569Z,100199.84
2023-05-19T09:56:57.706Z,100202.41
2023-05-19T09:59:25.794Z,100207.16
2023-05-19T10:01:55.220Z,100208.34
2023-05-19T10:04:23.638Z,100213.13
2023-05-19T10:06:51.110Z,100211.19
2023-05-19T10:09:18.560Z,100200.31
2023-05-19T10:11:46.154Z,100196.50
2023-05-19T10:14:15.872Z,100197.53
2023-05-19T10:16:44.381Z,100199.59
2023-05-19T10:19:13.972Z,100200.53
2023-05-19T10:22:19.070Z,100186.56
2023-05-19T10:24:46.319Z,100192.47
2023-05-19T10:27:19.948Z,100189.84
2023-05-19T10:29:52.253Z,100199.00
2023-05-19T10:32:26.697Z,100197.34
2023-05-19T10:35:28.288Z,100189.97
2023-05-19T10:38:09.536Z,100184.94
2023-05-19T10:40:53.343Z,100200.91
2023-05-19T10:43:37.142Z,100189.88
2023-05-19T10:46:06.309Z,100182.75
2023-05-19T10:48:35.227Z,100183.91
2023-05-19T10:51:03.100Z,100183.53
2023-05-19T10:53:32.070Z,100179.38
2023-05-19T10:56:02.324Z,100180.97
2023-05-19T10:58:38.683Z,100174.25
2023-05-19T11:01:14.214Z,100186.31
2023-05-19T11:03:49.973Z,100182.66
2023-05-19T11:06:35.081Z,100187.84
2023-05-19T11:09:13.449Z,100187.28
2023-05-19T11:11:48.136Z,100189.41
2023-05-19T11:14:18.311Z,100190.34
2023-05-19T11:16:50.203Z,100191.06
2023-05-19T11:19:27.479Z,100176.25
2023-05-19T11:21:55.594Z,100177.53
2023-05-19T11:24:40.333Z,100181.22
2023-05-19T11:27:24.543Z,100175.44
2023-05-19T11:29:52.370Z,100169.19
2023-05-19T11:32:22.976Z,100167.19
2023-05-19T11:34:50.284Z,100168.69
2023-05-19T11:37:17.535Z,100162.69
2023-05-19T11:39:46.891Z,100168.94
2023-05-19T11:42:16.524Z,100174.25
2023-05-19T11:44:44.391Z,100171.03
2023-05-19T11:47:24.974Z,100178.09
2023-05-19T11:49:52.274Z,100181.63
2023-05-19T11:52:22.986Z,100169.03
2023-05-19T11:54:50.662Z,100173.03
2023-05-19T11:58:35.700Z,100166.00
2023-05-19T12:01:04.506Z,100162.69
2023-05-19T12:03:32.874Z,100161.66
2023-05-19T12:06:00.240Z,100168.47
2023-05-19T12:08:27.260Z,100147.63
2023-05-19T12:10:54.321Z,100160.72
2023-05-19T12:13:22.751Z,100161.50
2023-05-19T12:15:51.076Z,100157.72
2023-05-19T12:18:19.318Z,100158.72
2023-05-19T12:20:47.867Z,100162.00
2023-05-19T12:23:14.872Z,100157.41
2023-05-19T12:26:34.993Z,100145.31
2023-05-19T12:29:04.410Z,100153.84
2023-05-19T12:31:31.405Z,100160.94
2023-05-19T12:33:58.631Z,100146.16
2023-05-19T12:36:27.238Z,100158.81
2023-05-19T12:38:56.414Z,100151.25
2023-05-19T12:41:50.513Z,100160.84
2023-05-19T12:44:17.742Z,100160.38
2023-05-19T12:46:44.776Z,100157.78
2023-05-19T12:49:12.050Z,100141.34
2023-05-19T12:51:40.571Z,100140.88
2023-05-19T12:54:07.749Z,100149.25
2023-05-19T12:56:34.998Z,100158.41
2023-05-19T12:59:01.941Z,100157.34
2023-05-19T13:03:56.935Z,100153.84
2023-05-19T13:06:23.920Z,100159.75
2023-05-19T13:08:52.171Z,100155.72
2023-05-19T13:11:19.402Z,100159.84
2023-05-19T13:13:46.255Z,100157.75
2023-05-19T13:16:35.648Z,100154.19
2023-05-19T13:19:03.276Z,100153.47
2023-05-19T13:21:30.233Z,100162.69
2023-05-19T13:23:58.719Z,100147.88
2023-05-19T13:26:26.777Z,100160.94
2023-05-19T13:28:53.716Z,100150.25
2023-05-19T13:31:49.405Z,100147.53
2023-05-19T13:34:16.428Z,100145.41
2023-05-19T13:36:43.409Z,100150.25
2023-05-19T13:39:37.736Z,100141.50
2023-05-19T13:42:05.316Z,100142.56
2023-05-19T13:44:32.798Z,100152.25
2023-05-19T13:46:59.800Z,100141.50
2023-05-19T13:49:27.269Z,100147.16
2023-05-19T13:51:57.504Z,100147.59
2023-05-19T13:54:24.513Z,100149.31
2023-05-19T13:56:53.579Z,100141.13
2023-05-19T13:59:21.280Z,100136.09
2023-05-19T14:01:48.280Z,100133.91
2023-05-19T14:04:18.562Z,100129.06
2023-05-19T14:06:46.539Z,100124.19
2023-05-19T14:09:13.495Z,100122.69
2023-05-19T14:11:40.421Z,100124.19
2023-05-19T14:14:12.625Z,100117.75
2023-05-19T14:16:45.362Z,100116.13
2023-05-19T14:19:13.352Z,100116.56
2023-05-19T14:21:40.549Z,100117.66
2023-05-19T14:24:07.620Z,100110.88
2023-05-19T14:26:35.045Z,100104.66
2023-05-19T14:29:04.698Z,100102.69
2023-05-19T14:31:34.272Z,100103.81
2023-05-19T14:34:02.833Z,100105.91
2023-05-19T14:36:30.404Z,100114.38
2023-05-19T14:38:57.357Z,100099.41
2023-05-19T14:41:24.474Z,100092.66
2023-05-19T14:43:51.608Z,100100.50
2023-05-19T14:46:18.584Z,100101.81
2023-05-19T14:48:46.761Z,100098.69
2023-05-19T14:51:14.346Z,100090.06
2023-05-19T14:53:41.259Z,100100.44
2023-05-19T14:56:33.760Z,100097.75
2023-05-19T14:59:00.628Z,100089.13
2023-05-19T15:01:27.529Z,100099.25
2023-05-19T15:04:04.859Z,100091.19
2023-05-19T15:06:35.237Z,100086.59
2023-05-19T15:09:27.085Z,100086.72
2023-05-19T15:11:54.335Z,100091.06
2023-05-19T15:14:22.402Z,100091.50
2023-05-19T15:16:49.310Z,100084.00
2023-05-19T15:19:17.955Z,100081.69
2023-05-19T15:21:44.831Z,100072.44
2023-05-19T15:24:11.867Z,100087.44
2023-05-19T15:26:38.965Z,100080.53
2023-05-19T15:29:56.959Z,100076.56
2023-05-19T15:32:24.725Z,100075.78
2023-05-19T15:34:53.444Z,100066.38
2023-05-19T15:37:20.540Z,100065.38
2023-05-19T15:39:47.439Z,100069.81
2023-05-19T15:42:24.648Z,100070.84
2023-05-19T15:44:52.704Z,100072.28
2023-05-19T15:47:19.668Z,100065.72
2023-05-19T15:49:46.834Z,100066.06
2023-05-19T15:52:15.109Z,100059.13
2023-05-19T15:54:42.005Z,100059.97
2023-05-19T15:57:09.396Z,100058.34
2023-05-19T15:59:36.336Z,100060.84
2023-05-19T16:02:03.709Z,100044.94
2023-05-19T16:04:30.925Z,100041.75
2023-05-19T16:06:57.872Z,100044.94
2023-05-19T16:09:26.369Z,100043.72
2023-05-19T16:11:53.809Z,100040.75
2023-05-19T16:14:46.548Z,100035.59
2023-05-19T16:17:13.618Z,100022.75
2023-05-19T16:19:41.104Z,100023.03
2023-05-19T16:22:08.141Z,100026.56
2023-05-19T16:24:37.501Z,100017.81
2023-05-19T16:27:05.444Z,100013.72
2023-05-19T16:29:32.359Z,100003.41
2023-05-19T16:31:59.352Z,100001.50
2023-05-19T16:34:27.489Z,99997.66
2023-05-19T16:36:56.160Z,100000.59
2023-05-19T16:39:24.839Z,100004.53
2023-05-19T16:41:53.228Z,100000.22
2023-05-19T16:44:20.885Z,100001.56
2023-05-19T16:46:47.922Z,99999.19
2023-05-19T16:49:14.879Z,99999.81
2023-05-19T16:51:41.963Z,99999.25
2023-05-19T16:54:09.084Z,99991.63
2023-05-19T16:56:36.028Z,99994.19
2023-05-19T16:59:04.348Z,99991.50
2023-05-19T17:01:31.694Z,99993.97
2023-05-19T17:03:58.770Z,99987.66
2023-05-19T17:06:26.572Z,99989.28
2023-05-19T17:08:53.583Z,99990.06
2023-05-19T17:11:20.735Z,99989.28
2023-05-19T17:13:48.051Z,99989.03
2023-05-19T17:16:16.887Z,99994.50
2023-05-19T17:18:45.044Z,99983.56
2023-05-19T17:21:12.004Z,99988.22
2023-05-19T17:23:38.970Z,99987.97
2023-05-19T17:26:06.157Z,99985.75
2023-05-19T17:28:33.434Z,99986.81
2023-05-19T17:31:00.601Z,99992.88
2023-05-19T17:33:29.363Z,99989.28
2023-05-19T17:35:56.458Z,99988.75
2023-05-19T17:38:23.545Z,99988.19
2023-05-19T17:40:50.499Z,99984.88
2023-05-19T17:43:17.889Z,99977.44
2023-05-19T17:45:44.838Z,99972.44
2023-05-19T17:48:11.932Z,99978.97
2023-05-19T17:50:40.352Z,99977.53
2023-05-19T17:53:08.367Z,99976.91
2023-05-19T17:55:36.577Z,99974.69
2023-05-19T17:58:04.189Z,99980.28
2023-05-19T18:00:31.869Z,99967.09
2023-05-19T18:02:59.788Z,99971.38
2023-05-19T18:05:28.930Z,99971.53
2023-05-19T18:08:00.057Z,99973.44
2023-05-19T18:10:27.947Z,99968.94
2023-05-19T18:12:54.986Z,99971.88
2023-05-19T18:15:22.266Z,99972.69
2023-05-19T18:17:49.517Z,99974.22
2023-05-19T18:20:16.917Z,99974.16
2023-05-19T18:22:44.056Z,99972.13
2023-05-19T18:25:13.195Z,99975.38
2023-05-19T18:27:40.127Z,99969.81
2023-05-19T18:30:08.449Z,99970.91
2023-05-19T18:32:36.111Z,99967.06
2023-05-19T18:35:04.534Z,99965.06
2023-05-19T18:37:31.568Z,99963.09
2023-05-19T18:39:59.942Z,99966.16
2023-05-19T18:42:29.488Z,99955.16
2023-05-19T18:44:57.126Z,99955.91
2023-05-19T18:47:24.118Z,99958.81
2023-05-19T18:49:51.291Z,99958.66
2023-05-19T18:52:20.809Z,99958.19
2023-05-19T18:54:47.941Z,99954.22
2023-05-19T18:57:15.278Z,99952.47
2023-05-19T18:59:43.700Z,99955.34
2023-05-19T19:02:10.824Z,99948.09
2023-05-19T19:04:38.043Z,99954.06
2023-05-19T19:07:05.830Z,99957.72
2023-05-19T19:09:35.271Z,99960.31
2023-05-19T19:12:02.932Z,99960.00
2023-05-19T19:14:29.867Z,99957.31
2023-05-19T19:16:58.360Z,99957.59
2023-05-19T19:19:28.533Z,99966.63
2023-05-19T19:21:55.708Z,99961.34
2023-05-19T19:24:22.681Z,99968.44
2023-05-19T19:26:50.321Z,99973.53
2023-05-19T19:29:17.541Z,99975.09
2023-05-19T19:31:44.568Z,99972.22
2023-05-19T19:34:16.244Z,99966.91
2023-05-19T19:36:45.816Z,99970.56
2023-05-19T19:39:14.652Z,99970.69
2023-05-19T19:41:41.859Z,99974.81
2023-05-19T19:44:09.018Z,99976.25
2023-05-19T19:46:39.468Z,99970.69
2023-05-19T19:49:07.713Z,99978.84
2023-05-19T19:51:39.165Z,99975.28
2023-05-19T19:54:06.310Z,99976.69
2023-05-19T19:56:33.343Z,99977.88
2023-05-19T19:59:00.696Z,99979.63
2023-05-19T20:01:28.138Z,99978.56
2023-05-19T20:03:56.340Z,99970.00
2023-05-19T20:06:23.670Z,99970.84
2023-05-19T20:08:52.027Z,99970.59
2023-05-19T20:11:41.785Z,99962.78
2023-05-19T20:14:59.426Z,99972.22
2023-05-19T20:17:26.992Z,99965.16
2023-05-19T20:19:55.188Z,99961.81
2023-05-19T20:22:22.288Z,99968.50
2023-05-19T20:24:51.309Z,99966.63
2023-05-19T20:27:18.910Z,99972.97
2023-05-19T20:29:45.778Z,99978.00
2023-05-19T20:32:13.535Z,99971.91
2023-05-19T20:34:40.472Z,99976.56
2023-05-19T20:37:07.548Z,99975.41
2023-05-19T20:39:34.762Z,99970.69
2023-05-19T20:42:03.104Z,99967.88
2023-05-19T20:44:30.187Z,99971.19
2023-05-19T20:46:57.349Z,99978.88
2023-05-19T20:49:28.616Z,99974.75
2023-05-19T20:51:56.781Z,99968.69
2023-05-19T20:54:23.964Z,99968.47
2023-05-19T20:56:53.132Z,99964.09
2023-05-19T20:59:21.482Z,99966.59
2023-05-19T21:01:48.948Z,99965.41
2023-05-19T21:04:16.017Z,99963.66
2023-05-19T21:06:42.937Z,99957.88
2023-05-19T21:09:10.181Z,99962.38
2023-05-19T21:11:38.209Z,99963.09
2023-05-19T21:14:07.567Z,99958.03
2023-05-19T21:16:36.044Z,99947.13
2023-05-19T21:19:02.951Z,99947.59
2023-05-19T21:21:29.886Z,99948.91
2023-05-19T21:23:56.833Z,99958.50
2023-05-19T21:26:23.965Z,99957.66
2023-05-19T21:28:51.131Z,99960.84
2023-05-19T21:31:18.194Z,99961.31
2023-05-19T21:33:46.624Z,99959.78
2023-05-19T21:36:13.488Z,99961.78
2023-05-19T21:38:40.624Z,99952.56
2023-05-19T21:41:07.557Z,99958.34
2023-05-19T21:43:34.752Z,99960.59
2023-05-19T21:46:01.694Z,99958.25
2023-05-19T21:48:28.970Z,99956.13
2023-05-19T21:50:57.288Z,99958.63
2023-05-19T21:53:24.628Z,99961.56
2023-05-19T21:55:51.535Z,99955.28
2023-05-19T21:58:18.483Z,99950.94
2023-05-19T22:00:49.088Z,99959.44
2023-05-19T22:03:16.141Z,99953.75
2023-05-19T22:05:48.400Z,99949.50
2023-05-19T22:08:18.939Z,99947.34
2023-05-19T22:10:49.906Z,99946.31
2023-05-19T22:13:17.221Z,99944.63
2023-05-19T22:15:44.377Z,99945.25
2023-05-19T22:18:11.388Z,99940.88
2023-05-19T22:20:38.368Z,99939.44
2023-05-19T22:23:05.611Z,99934.69
2023-05-19T22:25:33.978Z,99929.50
2023-05-19T22:28:04.413Z,99927.63
2023-05-19T22:30:31.884Z,99921.00
2023-05-19T22:32:58.974Z,99925.84
2023-05-19T22:35:26.224Z,99921.47
2023-05-19T22:37:53.157Z,99922.41
2023-05-19T22:40:20.002Z,99924.31
2023-05-19T22:42:48.246Z,99915.31
2023-05-19T22:45:42.042Z,99923.84
2023-05-19T22:48:09.475Z,99917.56
2023-05-19T22:50:36.550Z,99915.06
2023-05-19T22:53:03.528Z,99916.84
2023-05-19T22:55:30.429Z,99928.56
2023-05-19T22:57:59.120Z,99923.13
2023-05-19T23:00:26.105Z,99922.28
2023-05-19T23:02:56.018Z,99931.16
2023-05-19T23:05:23.325Z,99934.94
2023-05-19T23:07:50.561Z,99938.72
2023-05-19T23:10:42.943Z,99930.78
2023-05-19T23:13:11.190Z,99940.81
2023-05-19T23:15:38.375Z,99939.16
2023-05-19T23:18:34.195Z,99941.16
2023-05-19T23:21:01.098Z,99931.06
2023-05-19T23:23:29.218Z,99928.94
2023-05-19T23:26:27.892Z,99936.25
2023-05-19T23:28:57.084Z,99932.38
2023-05-19T23:31:24.175Z,99933.72
2023-05-19T23:33:51.215Z,99935.19
2023-05-19T23:36:18.322Z,99927.06
2023-05-19T23:38:45.305Z,99926.34
2023-05-19T23:41:12.244Z,99934.78
2023-05-19T23:43:39.459Z,99930.03
2023-05-19T23:46:08.206Z,99928.22
2023-05-19T23:48:35.152Z,99920.91
2023-05-19T23:51:02.199Z,99924.25
2023-05-19T23:53:29.646Z,99931.31
2023-05-19T23:55:58.666Z,99923.19
2023-05-19T23:58:25.846Z,99925.06
